sensor_id;sensor_type;location;lat;lon;timestamp;temperature;humidity
36924;DHT22;22841;50.252;18.688;2023-03-23T00:01:19;9.20;52.10
36924;DHT22;22841;50.252;18.688;2023-03-23T00:03:50;9.20;54.60
36924;DHT22;22841;50.252;18.688;2023-03-23T00:06:20;9.10;52.20
36924;DHT22;22841;50.252;18.688;2023-03-23T00:08:48;9.10;56.00
36924;DHT22;22841;50.252;18.688;2023-03-23T00:11:19;9.10;55.80
36924;DHT22;22841;50.252;18.688;2023-03-23T00:13:48;9.10;50.50
36924;DHT22;22841;50.252;18.688;2023-03-23T00:16:18;9.00;50.20
36924;DHT22;22841;50.252;18.688;2023-03-23T00:18:46;9.00;51.30
36924;DHT22;22841;50.252;18.688;2023-03-23T00:21:12;9.00;53.60
36924;DHT22;22841;50.252;18.688;2023-03-23T00:23:39;8.90;52.90
36924;DHT22;22841;50.252;18.688;2023-03-23T00:26:06;8.90;56.10
36924;DHT22;22841;50.252;18.688;2023-03-23T00:28:32;8.80;55.70
36924;DHT22;22841;50.252;18.688;2023-03-23T00:31:00;8.80;54.30
36924;DHT22;22841;50.252;18.688;2023-03-23T00:33:29;8.70;59.20
36924;DHT22;22841;50.252;18.688;2023-03-23T00:35:56;8.70;60.90
36924;DHT22;22841;50.252;18.688;2023-03-23T00:38:23;8.70;60.70
36924;DHT22;22841;50.252;18.688;2023-03-23T00:40:50;8.60;65.80
36924;DHT22;22841;50.252;18.688;2023-03-23T00:43:18;8.60;68.50
36924;DHT22;22841;50.252;18.688;2023-03-23T00:45:45;8.70;66.10
36924;DHT22;22841;50.252;18.688;2023-03-23T00:48:23;8.70;68.00
36924;DHT22;22841;50.252;18.688;2023-03-23T00:50:50;8.80;64.40
36924;DHT22;22841;50.252;18.688;2023-03-23T00:53:18;8.80;61.80
36924;DHT22;22841;50.252;18.688;2023-03-23T00:55:45;8.80;62.00
36924;DHT22;22841;50.252;18.688;2023-03-23T00:58:13;8.90;60.70
36924;DHT22;22841;50.252;18.688;2023-03-23T01:00:39;8.80;56.00
36924;DHT22;22841;50.252;18.688;2023-03-23T01:03:07;8.80;58.60
36924;DHT22;22841;50.252;18.688;2023-03-23T01:05:38;8.90;60.60
36924;DHT22;22841;50.252;18.688;2023-03-23T01:08:05;8.90;55.40
36924;DHT22;22841;50.252;18.688;2023-03-23T01:10:32;8.80;55.60
36924;DHT22;22841;50.252;18.688;2023-03-23T01:13:00;8.80;53.60
36924;DHT22;22841;50.252;18.688;2023-03-23T01:15:29;8.80;48.70
36924;DHT22;22841;50.252;18.688;2023-03-23T01:17:56;8.80;50.70
36924;DHT22;22841;50.252;18.688;2023-03-23T01:20:23;8.70;53.00
36924;DHT22;22841;50.252;18.688;2023-03-23T01:22:50;8.70;55.60
36924;DHT22;22841;50.252;18.688;2023-03-23T01:25:16;8.70;59.00
36924;DHT22;22841;50.252;18.688;2023-03-23T01:27:42;8.70;60.60
36924;DHT22;22841;50.252;18.688;2023-03-23T01:30:10;8.70;62.10
36924;DHT22;22841;50.252;18.688;2023-03-23T01:32:38;8.70;60.80
36924;DHT22;22841;50.252;18.688;2023-03-23T01:35:05;8.70;62.30
36924;DHT22;22841;50.252;18.688;2023-03-23T01:37:31;8.70;63.00
36924;DHT22;22841;50.252;18.688;2023-03-23T01:39:58;8.80;61.40
36924;DHT22;22841;50.252;18.688;2023-03-23T01:42:35;8.80;59.00
36924;DHT22;22841;50.252;18.688;2023-03-23T01:47:47;8.70;59.40
36924;DHT22;22841;50.252;18.688;2023-03-23T01:50:16;8.70;60.10
36924;DHT22;22841;50.252;18.688;2023-03-23T01:52:42;8.70;62.30
36924;DHT22;22841;50.252;18.688;2023-03-23T01:55:08;8.70;64.30
36924;DHT22;22841;50.252;18.688;2023-03-23T01:57:35;8.70;64.40
36924;DHT22;22841;50.252;18.688;2023-03-23T02:00:05;8.70;60.00
36924;DHT22;22841;50.252;18.688;2023-03-23T02:02:44;8.60;64.00
36924;DHT22;22841;50.252;18.688;2023-03-23T02:05:15;8.60;64.20
36924;DHT22;22841;50.252;18.688;2023-03-23T02:07:46;8.60;68.10
36924;DHT22;22841;50.252;18.688;2023-03-23T02:10:13;8.60;69.20
36924;DHT22;22841;50.252;18.688;2023-03-23T02:12:39;8.60;68.70
36924;DHT22;22841;50.252;18.688;2023-03-23T02:15:06;8.50;66.50
36924;DHT22;22841;50.252;18.688;2023-03-23T02:18:08;8.50;65.30
36924;DHT22;22841;50.252;18.688;2023-03-23T02:23:17;8.60;65.90
36924;DHT22;22841;50.252;18.688;2023-03-23T02:34:29;8.60;62.80
36924;DHT22;22841;50.252;18.688;2023-03-23T02:42:00;8.60;62.40
36924;DHT22;22841;50.252;18.688;2023-03-23T02:44:29;8.70;63.50
36924;DHT22;22841;50.252;18.688;2023-03-23T02:46:58;8.70;63.80
36924;DHT22;22841;50.252;18.688;2023-03-23T02:49:27;8.70;63.90
36924;DHT22;22841;50.252;18.688;2023-03-23T02:51:56;8.70;63.80
36924;DHT22;22841;50.252;18.688;2023-03-23T02:54:24;8.70;65.20
36924;DHT22;22841;50.252;18.688;2023-03-23T02:56:53;8.70;64.40
36924;DHT22;22841;50.252;18.688;2023-03-23T02:59:20;8.70;63.70
36924;DHT22;22841;50.252;18.688;2023-03-23T03:04:25;8.70;66.20
36924;DHT22;22841;50.252;18.688;2023-03-23T03:07:28;8.60;66.70
36924;DHT22;22841;50.252;18.688;2023-03-23T03:10:18;8.70;65.80
36924;DHT22;22841;50.252;18.688;2023-03-23T03:15:26;8.70;64.10
36924;DHT22;22841;50.252;18.688;2023-03-23T03:18:16;8.70;63.60
36924;DHT22;22841;50.252;18.688;2023-03-23T03:20:48;8.70;64.30
36924;DHT22;22841;50.252;18.688;2023-03-23T03:23:16;8.70;66.00
36924;DHT22;22841;50.252;18.688;2023-03-23T03:25:43;8.70;65.30
36924;DHT22;22841;50.252;18.688;2023-03-23T03:28:16;8.80;65.30
36924;DHT22;22841;50.252;18.688;2023-03-23T03:30:44;8.80;64.30
36924;DHT22;22841;50.252;18.688;2023-03-23T03:33:11;8.80;64.10
36924;DHT22;22841;50.252;18.688;2023-03-23T03:35:40;8.80;65.10
36924;DHT22;22841;50.252;18.688;2023-03-23T03:38:09;8.80;65.90
36924;DHT22;22841;50.252;18.688;2023-03-23T03:40:35;8.80;66.00
36924;DHT22;22841;50.252;18.688;2023-03-23T03:43:02;8.80;65.00
36924;DHT22;22841;50.252;18.688;2023-03-23T03:45:28;8.90;62.70
36924;DHT22;22841;50.252;18.688;2023-03-23T03:47:54;9.00;59.60
36924;DHT22;22841;50.252;18.688;2023-03-23T03:50:21;9.00;57.10
36924;DHT22;22841;50.252;18.688;2023-03-23T03:52:47;9.00;54.10
36924;DHT22;22841;50.252;18.688;2023-03-23T03:55:13;9.10;54.00
36924;DHT22;22841;50.252;18.688;2023-03-23T03:57:40;9.00;53.50
36924;DHT22;22841;50.252;18.688;2023-03-23T04:00:08;9.00;53.30
36924;DHT22;22841;50.252;18.688;2023-03-23T04:02:46;8.90;52.80
36924;DHT22;22841;50.252;18.688;2023-03-23T04:05:23;8.90;54.00
36924;DHT22;22841;50.252;18.688;2023-03-23T04:07:50;8.90;52.10
36924;DHT22;22841;50.252;18.688;2023-03-23T04:10:19;8.90;50.70
36924;DHT22;22841;50.252;18.688;2023-03-23T04:12:48;8.80;50.60
36924;DHT22;22841;50.252;18.688;2023-03-23T04:15:14;8.80;50.40
36924;DHT22;22841;50.252;18.688;2023-03-23T04:17:41;8.80;51.50
36924;DHT22;22841;50.252;18.688;2023-03-23T04:20:09;8.70;52.90
36924;DHT22;22841;50.252;18.688;2023-03-23T04:22:39;8.70;54.40
36924;DHT22;22841;50.252;18.688;2023-03-23T04:25:11;8.70;54.30
36924;DHT22;22841;50.252;18.688;2023-03-23T04:27:39;8.70;54.50
36924;DHT22;22841;50.252;18.688;2023-03-23T04:30:10;8.60;55.20
36924;DHT22;22841;50.252;18.688;2023-03-23T04:32:38;8.60;55.60
36924;DHT22;22841;50.252;18.688;2023-03-23T04:35:10;8.60;55.00
36924;DHT22;22841;50.252;18.688;2023-03-23T04:37:37;8.60;53.70
36924;DHT22;22841;50.252;18.688;2023-03-23T04:40:05;8.60;55.40
36924;DHT22;22841;50.252;18.688;2023-03-23T04:42:32;8.50;53.00
36924;DHT22;22841;50.252;18.688;2023-03-23T04:44:59;8.60;57.30
36924;DHT22;22841;50.252;18.688;2023-03-23T04:47:26;8.50;55.60
36924;DHT22;22841;50.252;18.688;2023-03-23T04:49:56;8.50;57.60
36924;DHT22;22841;50.252;18.688;2023-03-23T04:52:26;8.50;56.70
36924;DHT22;22841;50.252;18.688;2023-03-23T04:54:54;8.50;57.20
36924;DHT22;22841;50.252;18.688;2023-03-23T04:57:22;8.50;57.70
36924;DHT22;22841;50.252;18.688;2023-03-23T04:59:48;8.40;60.30
36924;DHT22;22841;50.252;18.688;2023-03-23T05:02:14;8.40;62.50
36924;DHT22;22841;50.252;18.688;2023-03-23T05:04:42;8.40;58.60
36924;DHT22;22841;50.252;18.688;2023-03-23T05:07:10;8.40;60.60
36924;DHT22;22841;50.252;18.688;2023-03-23T05:09:37;8.50;62.30
36924;DHT22;22841;50.252;18.688;2023-03-23T05:12:08;8.50;61.10
36924;DHT22;22841;50.252;18.688;2023-03-23T05:14:34;8.50;61.40
36924;DHT22;22841;50.252;18.688;2023-03-23T05:17:01;8.50;62.30
36924;DHT22;22841;50.252;18.688;2023-03-23T05:19:27;8.60;63.00
36924;DHT22;22841;50.252;18.688;2023-03-23T05:21:56;8.60;63.00
36924;DHT22;22841;50.252;18.688;2023-03-23T05:24:22;8.60;63.60
36924;DHT22;22841;50.252;18.688;2023-03-23T05:26:50;8.70;63.60
36924;DHT22;22841;50.252;18.688;2023-03-23T05:29:18;8.70;62.90
36924;DHT22;22841;50.252;18.688;2023-03-23T05:31:44;8.90;59.00
36924;DHT22;22841;50.252;18.688;2023-03-23T05:34:10;8.90;58.10
36924;DHT22;22841;50.252;18.688;2023-03-23T05:36:37;8.90;56.50
36924;DHT22;22841;50.252;18.688;2023-03-23T05:39:03;9.00;55.40
36924;DHT22;22841;50.252;18.688;2023-03-23T05:41:29;9.00;52.60
36924;DHT22;22841;50.252;18.688;2023-03-23T05:43:55;9.00;51.20
36924;DHT22;22841;50.252;18.688;2023-03-23T05:46:21;9.10;47.80
36924;DHT22;22841;50.252;18.688;2023-03-23T05:48:48;9.10;49.70
36924;DHT22;22841;50.252;18.688;2023-03-23T05:51:14;9.20;48.10
36924;DHT22;22841;50.252;18.688;2023-03-23T05:53:40;9.10;49.30
36924;DHT22;22841;50.252;18.688;2023-03-23T05:56:06;9.20;49.10
36924;DHT22;22841;50.252;18.688;2023-03-23T05:58:32;9.20;48.10
36924;DHT22;22841;50.252;18.688;2023-03-23T06:00:58;9.30;41.20
36924;DHT22;22841;50.252;18.688;2023-03-23T06:03:25;9.30;44.00
36924;DHT22;22841;50.252;18.688;2023-03-23T06:05:51;9.30;47.20
36924;DHT22;22841;50.252;18.688;2023-03-23T06:08:18;9.30;48.10
36924;DHT22;22841;50.252;18.688;2023-03-23T06:10:44;9.40;42.40
36924;DHT22;22841;50.252;18.688;2023-03-23T06:13:10;9.40;37.30
36924;DHT22;22841;50.252;18.688;2023-03-23T06:15:36;9.40;35.50
36924;DHT22;22841;50.252;18.688;2023-03-23T06:18:03;9.50;26.30
36924;DHT22;22841;50.252;18.688;2023-03-23T06:20:29;9.50;29.60
36924;DHT22;22841;50.252;18.688;2023-03-23T06:22:56;9.50;27.30
36924;DHT22;22841;50.252;18.688;2023-03-23T06:25:22;9.60;25.10
36924;DHT22;22841;50.252;18.688;2023-03-23T06:27:49;9.60;29.30
36924;DHT22;22841;50.252;18.688;2023-03-23T06:30:18;9.60;30.80
36924;DHT22;22841;50.252;18.688;2023-03-23T06:32:44;9.60;32.60
36924;DHT22;22841;50.252;18.688;2023-03-23T06:35:14;9.70;33.50
36924;DHT22;22841;50.252;18.688;2023-03-23T06:37:41;9.70;37.10
36924;DHT22;22841;50.252;18.688;2023-03-23T06:40:08;9.70;32.50
36924;DHT22;22841;50.252;18.688;2023-03-23T06:42:35;9.80;25.00
36924;DHT22;22841;50.252;18.688;2023-03-23T06:45:04;9.90;18.60
36924;DHT22;22841;50.252;18.688;2023-03-23T06:47:30;9.90;12.80
36924;DHT22;22841;50.252;18.688;2023-03-23T06:49:57;10.00;21.50
36924;DHT22;22841;50.252;18.688;2023-03-23T06:52:25;10.10;17.40
36924;DHT22;22841;50.252;18.688;2023-03-23T06:54:51;10.10;4.40
36924;DHT22;22841;50.252;18.688;2023-03-23T06:57:18;10.20;1.00
36924;DHT22;22841;50.252;18.688;2023-03-23T06:59:45;10.20;1.00
36924;DHT22;22841;50.252;18.688;2023-03-23T07:02:13;10.30;1.90
36924;DHT22;22841;50.252;18.688;2023-03-23T07:04:40;10.30;2.70
36924;DHT22;22841;50.252;18.688;2023-03-23T07:07:10;10.30;1.00
36924;DHT22;22841;50.252;18.688;2023-03-23T07:09:39;10.40;1.00
36924;DHT22;22841;50.252;18.688;2023-03-23T07:12:05;10.40;1.00
36924;DHT22;22841;50.252;18.688;2023-03-23T07:14:31;10.40;1.00
36924;DHT22;22841;50.252;18.688;2023-03-23T07:16:58;10.40;1.00
36924;DHT22;22841;50.252;18.688;2023-03-23T07:19:24;10.50;1.00
36924;DHT22;22841;50.252;18.688;2023-03-23T07:21:50;10.50;1.00
36924;DHT22;22841;50.252;18.688;2023-03-23T07:24:16;10.50;1.00
36924;DHT22;22841;50.252;18.688;2023-03-23T07:26:44;10.50;1.00
36924;DHT22;22841;50.252;18.688;2023-03-23T07:29:10;10.60;1.00
36924;DHT22;22841;50.252;18.688;2023-03-23T07:31:36;10.60;1.00
36924;DHT22;22841;50.252;18.688;2023-03-23T07:34:03;10.60;1.00
36924;DHT22;22841;50.252;18.688;2023-03-23T07:36:29;10.70;1.00
36924;DHT22;22841;50.252;18.688;2023-03-23T07:38:56;10.70;1.00
36924;DHT22;22841;50.252;18.688;2023-03-23T07:41:22;10.70;1.00
36924;DHT22;22841;50.252;18.688;2023-03-23T07:43:48;10.70;1.00
36924;DHT22;22841;50.252;18.688;2023-03-23T07:46:14;10.80;1.00
36924;DHT22;22841;50.252;18.688;2023-03-23T07:48:40;10.90;1.00
36924;DHT22;22841;50.252;18.688;2023-03-23T07:51:06;10.90;1.00
36924;DHT22;22841;50.252;18.688;2023-03-23T07:53:33;10.90;1.00
36924;DHT22;22841;50.252;18.688;2023-03-23T07:55:59;10.90;1.00
36924;DHT22;22841;50.252;18.688;2023-03-23T07:58:26;11.00;1.00
36924;DHT22;22841;50.252;18.688;2023-03-23T08:00:54;11.30;1.00
36924;DHT22;22841;50.252;18.688;2023-03-23T08:03:22;11.50;1.00
36924;DHT22;22841;50.252;18.688;2023-03-23T08:05:48;11.70;99.90
36924;DHT22;22841;50.252;18.688;2023-03-23T08:08:14;12.10;99.90
36924;DHT22;22841;50.252;18.688;2023-03-23T08:10:40;12.20;99.90
36924;DHT22;22841;50.252;18.688;2023-03-23T08:13:06;12.30;99.90
36924;DHT22;22841;50.252;18.688;2023-03-23T08:15:32;12.50;99.90
36924;DHT22;22841;50.252;18.688;2023-03-23T08:18:03;12.80;99.90
36924;DHT22;22841;50.252;18.688;2023-03-23T08:20:29;13.10;99.90
36924;DHT22;22841;50.252;18.688;2023-03-23T08:22:56;13.30;21.10
36924;DHT22;22841;50.252;18.688;2023-03-23T08:25:23;13.30;36.00
36924;DHT22;22841;50.252;18.688;2023-03-23T08:27:53;13.20;1.00
36924;DHT22;22841;50.252;18.688;2023-03-23T08:30:21;13.10;99.90
36924;DHT22;22841;50.252;18.688;2023-03-23T08:32:49;13.00;36.60
36924;DHT22;22841;50.252;18.688;2023-03-23T08:35:16;13.10;33.90
36924;DHT22;22841;50.252;18.688;2023-03-23T08:37:42;13.30;1.00
36924;DHT22;22841;50.252;18.688;2023-03-23T08:40:10;13.40;1.00
36924;DHT22;22841;50.252;18.688;2023-03-23T08:42:38;13.60;43.40
36924;DHT22;22841;50.252;18.688;2023-03-23T08:45:06;13.70;99.90
36924;DHT22;22841;50.252;18.688;2023-03-23T08:47:34;13.90;99.90
36924;DHT22;22841;50.252;18.688;2023-03-23T08:50:02;14.00;99.90
36924;DHT22;22841;50.252;18.688;2023-03-23T08:52:29;14.30;99.90
36924;DHT22;22841;50.252;18.688;2023-03-23T08:54:55;14.50;99.90
36924;DHT22;22841;50.252;18.688;2023-03-23T08:57:24;14.80;99.90
36924;DHT22;22841;50.252;18.688;2023-03-23T08:59:50;15.10;1.00
36924;DHT22;22841;50.252;18.688;2023-03-23T09:02:17;15.20;99.90
36924;DHT22;22841;50.252;18.688;2023-03-23T09:04:43;15.30;99.90
36924;DHT22;22841;50.252;18.688;2023-03-23T09:07:10;15.40;1.00
36924;DHT22;22841;50.252;18.688;2023-03-23T09:09:38;15.30;99.90
36924;DHT22;22841;50.252;18.688;2023-03-23T09:12:08;15.40;99.90
36924;DHT22;22841;50.252;18.688;2023-03-23T09:14:35;15.40;99.90
36924;DHT22;22841;50.252;18.688;2023-03-23T09:17:02;15.30;99.90
36924;DHT22;22841;50.252;18.688;2023-03-23T09:19:33;15.20;99.90
36924;DHT22;22841;50.252;18.688;2023-03-23T09:22:00;15.10;99.90
36924;DHT22;22841;50.252;18.688;2023-03-23T09:24:26;15.10;99.90
36924;DHT22;22841;50.252;18.688;2023-03-23T09:26:52;15.10;99.90
36924;DHT22;22841;50.252;18.688;2023-03-23T09:29:19;15.20;99.90
36924;DHT22;22841;50.252;18.688;2023-03-23T09:31:47;15.30;99.90
36924;DHT22;22841;50.252;18.688;2023-03-23T09:34:14;15.50;56.00
36924;DHT22;22841;50.252;18.688;2023-03-23T09:36:42;15.70;99.90
36924;DHT22;22841;50.252;18.688;2023-03-23T09:39:09;15.90;99.90
36924;DHT22;22841;50.252;18.688;2023-03-23T09:49:57;16.60;1.00
36924;DHT22;22841;50.252;18.688;2023-03-23T09:52:42;16.50;1.00
36924;DHT22;22841;50.252;18.688;2023-03-23T09:55:13;16.50;99.90
36924;DHT22;22841;50.252;18.688;2023-03-23T09:58:07;16.50;99.90
36924;DHT22;22841;50.252;18.688;2023-03-23T10:00:43;16.50;99.90
36924;DHT22;22841;50.252;18.688;2023-03-23T10:03:21;16.50;99.90
36924;DHT22;22841;50.252;18.688;2023-03-23T10:05:51;16.60;99.90
36924;DHT22;22841;50.252;18.688;2023-03-23T10:08:29;16.70;1.00
36924;DHT22;22841;50.252;18.688;2023-03-23T10:11:14;16.70;99.90
36924;DHT22;22841;50.252;18.688;2023-03-23T10:16:30;16.80;1.00
36924;DHT22;22841;50.252;18.688;2023-03-23T10:19:20;16.80;99.90
36924;DHT22;22841;50.252;18.688;2023-03-23T10:21:57;16.70;99.90
36924;DHT22;22841;50.252;18.688;2023-03-23T10:24:33;16.50;99.90
36924;DHT22;22841;50.252;18.688;2023-03-23T10:27:41;16.30;99.90
36924;DHT22;22841;50.252;18.688;2023-03-23T10:35:12;16.00;1.00
36924;DHT22;22841;50.252;18.688;2023-03-23T10:37:47;16.00;99.90
36924;DHT22;22841;50.252;18.688;2023-03-23T10:40:21;16.00;99.90
36924;DHT22;22841;50.252;18.688;2023-03-23T10:42:50;15.90;1.00
36924;DHT22;22841;50.252;18.688;2023-03-23T10:45:21;15.70;1.00
36924;DHT22;22841;50.252;18.688;2023-03-23T10:48:14;15.70;68.90
36924;DHT22;22841;50.252;18.688;2023-03-23T10:50:38;15.60;1.00
36924;DHT22;22841;50.252;18.688;2023-03-23T10:53:20;15.70;99.90
36924;DHT22;22841;50.252;18.688;2023-03-23T10:55:47;15.70;1.00
36924;DHT22;22841;50.252;18.688;2023-03-23T10:58:24;15.80;99.90
36924;DHT22;22841;50.252;18.688;2023-03-23T11:00:51;15.80;99.90
36924;DHT22;22841;50.252;18.688;2023-03-23T11:05:54;15.60;99.90
36924;DHT22;22841;50.252;18.688;2023-03-23T11:08:27;15.60;99.90
36924;DHT22;22841;50.252;18.688;2023-03-23T11:11:17;15.50;75.80
36924;DHT22;22841;50.252;18.688;2023-03-23T11:13:46;15.50;1.00
36924;DHT22;22841;50.252;18.688;2023-03-23T11:16:28;15.40;99.90
36924;DHT22;22841;50.252;18.688;2023-03-23T11:18:56;15.40;1.00
36924;DHT22;22841;50.252;18.688;2023-03-23T11:21:24;15.40;1.00
36924;DHT22;22841;50.252;18.688;2023-03-23T11:23:56;15.40;99.90
36924;DHT22;22841;50.252;18.688;2023-03-23T11:26:32;15.40;1.00
36924;DHT22;22841;50.252;18.688;2023-03-23T11:29:16;15.40;99.90
36924;DHT22;22841;50.252;18.688;2023-03-23T11:31:48;15.40;1.00
36924;DHT22;22841;50.252;18.688;2023-03-23T11:34:30;15.50;1.00
36924;DHT22;22841;50.252;18.688;2023-03-23T11:37:29;15.60;99.90
36924;DHT22;22841;50.252;18.688;2023-03-23T11:45:20;15.90;99.90
36924;DHT22;22841;50.252;18.688;2023-03-23T11:48:18;15.90;99.90
36924;DHT22;22841;50.252;18.688;2023-03-23T11:50:58;16.00;99.90
36924;DHT22;22841;50.252;18.688;2023-03-23T11:53:59;16.00;99.90
36924;DHT22;22841;50.252;18.688;2023-03-23T11:56:28;16.00;99.90
36924;DHT22;22841;50.252;18.688;2023-03-23T11:58:57;16.10;1.00
36924;DHT22;22841;50.252;18.688;2023-03-23T12:15:09;16.50;99.90
36924;DHT22;22841;50.252;18.688;2023-03-23T12:17:49;16.50;1.00
36924;DHT22;22841;50.252;18.688;2023-03-23T12:20:27;16.60;99.90
36924;DHT22;22841;50.252;18.688;2023-03-23T12:30:45;16.60;99.90
36924;DHT22;22841;50.252;18.688;2023-03-23T12:41:51;16.50;1.00
36924;DHT22;22841;50.252;18.688;2023-03-23T12:44:50;16.60;22.90
36924;DHT22;22841;50.252;18.688;2023-03-23T12:47:29;16.60;55.60
36924;DHT22;22841;50.252;18.688;2023-03-23T12:53:36;16.60;99.90
36924;DHT22;22841;50.252;18.688;2023-03-23T12:58:49;16.60;41.10
36924;DHT22;22841;50.252;18.688;2023-03-23T13:01:24;16.50;99.90
36924;DHT22;22841;50.252;18.688;2023-03-23T13:09:10;16.80;99.90
36924;DHT22;22841;50.252;18.688;2023-03-23T13:11:39;16.90;1.00
36924;DHT22;22841;50.252;18.688;2023-03-23T13:22:56;17.00;54.10
36924;DHT22;22841;50.252;18.688;2023-03-23T13:28:29;17.10;99.90
36924;DHT22;22841;50.252;18.688;2023-03-23T13:31:10;17.00;99.90
36924;DHT22;22841;50.252;18.688;2023-03-23T13:33:37;17.00;33.30
36924;DHT22;22841;50.252;18.688;2023-03-23T13:36:08;17.00;99.90
36924;DHT22;22841;50.252;18.688;2023-03-23T13:38:35;17.00;65.10
36924;DHT22;22841;50.252;18.688;2023-03-23T13:41:11;17.00;1.00
36924;DHT22;22841;50.252;18.688;2023-03-23T13:43:40;17.10;92.90
36924;DHT22;22841;50.252;18.688;2023-03-23T13:49:04;17.20;1.00
36924;DHT22;22841;50.252;18.688;2023-03-23T13:56:58;17.10;44.60
36924;DHT22;22841;50.252;18.688;2023-03-23T14:01:55;17.10;1.00
36924;DHT22;22841;50.252;18.688;2023-03-23T14:04:23;17.00;99.90
36924;DHT22;22841;50.252;18.688;2023-03-23T14:06:57;17.00;56.40
36924;DHT22;22841;50.252;18.688;2023-03-23T14:09:30;16.90;1.00
36924;DHT22;22841;50.252;18.688;2023-03-23T14:11:58;16.90;1.00
36924;DHT22;22841;50.252;18.688;2023-03-23T14:14:33;16.90;1.00
36924;DHT22;22841;50.252;18.688;2023-03-23T14:17:18;16.90;10.70
36924;DHT22;22841;50.252;18.688;2023-03-23T14:19:50;16.90;99.90
36924;DHT22;22841;50.252;18.688;2023-03-23T14:22:19;16.90;99.90
36924;DHT22;22841;50.252;18.688;2023-03-23T14:24:48;16.90;99.90
36924;DHT22;22841;50.252;18.688;2023-03-23T14:27:20;16.90;49.50
36924;DHT22;22841;50.252;18.688;2023-03-23T14:30:01;16.90;1.00
36924;DHT22;22841;50.252;18.688;2023-03-23T14:32:30;17.00;99.90
36924;DHT22;22841;50.252;18.688;2023-03-23T14:34:59;16.90;78.00
36924;DHT22;22841;50.252;18.688;2023-03-23T14:37:26;16.90;99.90
36924;DHT22;22841;50.252;18.688;2023-03-23T14:39:54;16.80;99.90
36924;DHT22;22841;50.252;18.688;2023-03-23T14:42:29;16.80;1.00
36924;DHT22;22841;50.252;18.688;2023-03-23T14:44:57;16.70;99.90
36924;DHT22;22841;50.252;18.688;2023-03-23T14:47:32;16.80;99.90
36924;DHT22;22841;50.252;18.688;2023-03-23T14:50:01;16.70;99.90
36924;DHT22;22841;50.252;18.688;2023-03-23T14:52:29;16.70;99.90
36924;DHT22;22841;50.252;18.688;2023-03-23T14:55:16;16.70;99.90
36924;DHT22;22841;50.252;18.688;2023-03-23T14:57:43;16.70;1.00
36924;DHT22;22841;50.252;18.688;2023-03-23T15:00:25;16.70;99.90
36924;DHT22;22841;50.252;18.688;2023-03-23T15:02:56;16.70;99.90
36924;DHT22;22841;50.252;18.688;2023-03-23T15:05:28;16.70;13.20
36924;DHT22;22841;50.252;18.688;2023-03-23T15:07:58;16.70;99.90
36924;DHT22;22841;50.252;18.688;2023-03-23T15:10:26;16.60;58.70
36924;DHT22;22841;50.252;18.688;2023-03-23T15:12:52;16.60;99.90
36924;DHT22;22841;50.252;18.688;2023-03-23T15:15:30;16.50;1.00
36924;DHT22;22841;50.252;18.688;2023-03-23T15:17:59;16.50;1.00
36924;DHT22;22841;50.252;18.688;2023-03-23T15:22:54;16.30;1.00
36924;DHT22;22841;50.252;18.688;2023-03-23T15:25:33;16.30;58.40
36924;DHT22;22841;50.252;18.688;2023-03-23T15:28:19;16.20;99.90
36924;DHT22;22841;50.252;18.688;2023-03-23T15:30:51;16.20;99.90
36924;DHT22;22841;50.252;18.688;2023-03-23T15:33:18;16.10;99.90
36924;DHT22;22841;50.252;18.688;2023-03-23T15:35:53;16.10;99.90
36924;DHT22;22841;50.252;18.688;2023-03-23T15:38:29;16.10;80.20
36924;DHT22;22841;50.252;18.688;2023-03-23T15:40:58;16.10;1.00
36924;DHT22;22841;50.252;18.688;2023-03-23T15:43:27;16.10;99.90
36924;DHT22;22841;50.252;18.688;2023-03-23T15:46:01;16.10;99.90
36924;DHT22;22841;50.252;18.688;2023-03-23T15:48:33;16.00;1.00
36924;DHT22;22841;50.252;18.688;2023-03-23T15:51:10;16.00;99.90
36924;DHT22;22841;50.252;18.688;2023-03-23T15:53:39;15.90;99.90
36924;DHT22;22841;50.252;18.688;2023-03-23T15:56:07;15.70;1.00
36924;DHT22;22841;50.252;18.688;2023-03-23T15:58:35;15.60;1.00
36924;DHT22;22841;50.252;18.688;2023-03-23T16:01:07;15.60;99.90
36924;DHT22;22841;50.252;18.688;2023-03-23T16:03:49;15.50;99.90
36924;DHT22;22841;50.252;18.688;2023-03-23T16:06:21;15.40;99.90
36924;DHT22;22841;50.252;18.688;2023-03-23T16:08:49;15.30;99.90
36924;DHT22;22841;50.252;18.688;2023-03-23T16:11:17;15.30;1.00
36924;DHT22;22841;50.252;18.688;2023-03-23T16:13:43;15.20;1.00
36924;DHT22;22841;50.252;18.688;2023-03-23T16:16:15;15.10;1.00
36924;DHT22;22841;50.252;18.688;2023-03-23T16:18:42;15.10;99.90
36924;DHT22;22841;50.252;18.688;2023-03-23T16:21:09;15.00;99.90
36924;DHT22;22841;50.252;18.688;2023-03-23T16:23:35;14.90;99.90
36924;DHT22;22841;50.252;18.688;2023-03-23T16:26:01;14.80;99.90
36924;DHT22;22841;50.252;18.688;2023-03-23T16:28:27;14.70;99.90
36924;DHT22;22841;50.252;18.688;2023-03-23T16:30:53;14.60;99.90
36924;DHT22;22841;50.252;18.688;2023-03-23T16:33:20;14.60;99.90
36924;DHT22;22841;50.252;18.688;2023-03-23T16:35:46;14.50;1.00
36924;DHT22;22841;50.252;18.688;2023-03-23T16:38:13;14.50;99.90
36924;DHT22;22841;50.252;18.688;2023-03-23T16:40:42;14.50;99.90
36924;DHT22;22841;50.252;18.688;2023-03-23T16:43:08;14.50;99.90
36924;DHT22;22841;50.252;18.688;2023-03-23T16:45:37;14.50;99.90
36924;DHT22;22841;50.252;18.688;2023-03-23T16:48:04;14.50;99.30
36924;DHT22;22841;50.252;18.688;2023-03-23T16:50:32;14.60;89.10
36924;DHT22;22841;50.252;18.688;2023-03-23T16:52:58;14.60;23.20
36924;DHT22;22841;50.252;18.688;2023-03-23T16:55:26;14.60;1.00
36924;DHT22;22841;50.252;18.688;2023-03-23T16:57:54;14.60;1.00
36924;DHT22;22841;50.252;18.688;2023-03-23T17:00:20;14.70;99.90
36924;DHT22;22841;50.252;18.688;2023-03-23T17:02:48;14.70;99.90
36924;DHT22;22841;50.252;18.688;2023-03-23T17:05:19;14.70;1.00
36924;DHT22;22841;50.252;18.688;2023-03-23T17:07:46;14.60;1.00
36924;DHT22;22841;50.252;18.688;2023-03-23T17:10:13;14.60;99.90
36924;DHT22;22841;50.252;18.688;2023-03-23T17:12:39;14.50;99.90
36924;DHT22;22841;50.252;18.688;2023-03-23T17:15:07;14.50;99.90
36924;DHT22;22841;50.252;18.688;2023-03-23T17:17:34;14.40;1.00
36924;DHT22;22841;50.252;18.688;2023-03-23T17:20:00;14.40;1.00
36924;DHT22;22841;50.252;18.688;2023-03-23T17:22:27;14.40;1.00
36924;DHT22;22841;50.252;18.688;2023-03-23T17:24:53;14.40;1.60
36924;DHT22;22841;50.252;18.688;2023-03-23T17:27:20;14.40;68.40
36924;DHT22;22841;50.252;18.688;2023-03-23T17:29:46;14.40;99.90
36924;DHT22;22841;50.252;18.688;2023-03-23T17:32:13;14.30;99.90
36924;DHT22;22841;50.252;18.688;2023-03-23T17:34:39;14.20;99.90
36924;DHT22;22841;50.252;18.688;2023-03-23T17:37:05;14.20;73.20